sensor_id;sensor_type;location;lat;lon;timestamp;P1;durP1;ratioP1;P2;durP2;ratioP2
11173;SDS011;5643;50.856;12.088;2022-11-15T00:00:31;8.73;;;7.93;;
11173;SDS011;5643;50.856;12.088;2022-11-15T00:02:59;9.13;;;8.23;;
11173;SDS011;5643;50.856;12.088;2022-11-15T00:05:28;8.77;;;7.97;;
11173;SDS011;5643;50.856;12.088;2022-11-15T00:07:56;8.40;;;7.60;;
11173;SDS011;5643;50.856;12.088;2022-11-15T00:10:24;8.77;;;7.97;;
11173;SDS011;5643;50.856;12.088;2022-11-15T00:12:51;9.00;;;8.20;;
11173;SDS011;5643;50.856;12.088;2022-11-15T00:15:18;9.17;;;8.37;;
11173;SDS011;5643;50.856;12.088;2022-11-15T00:17:48;8.27;;;7.57;;
11173;SDS011;5643;50.856;12.088;2022-11-15T00:20:15;8.77;;;7.97;;
11173;SDS011;5643;50.856;12.088;2022-11-15T00:22:44;8.40;;;7.70;;
11173;SDS011;5643;50.856;12.088;2022-11-15T00:25:11;8.90;;;8.03;;
11173;SDS011;5643;50.856;12.088;2022-11-15T00:27:39;9.43;;;8.53;;
11173;SDS011;5643;50.856;12.088;2022-11-15T00:30:07;9.83;;;8.83;;
11173;SDS011;5643;50.856;12.088;2022-11-15T00:32:34;9.77;;;8.87;;
11173;SDS011;5643;50.856;12.088;2022-11-15T00:35:01;9.10;;;8.30;;
11173;SDS011;5643;50.856;12.088;2022-11-15T00:37:29;10.00;;;9.10;;
11173;SDS011;5643;50.856;12.088;2022-11-15T00:39:57;9.23;;;8.43;;
11173;SDS011;5643;50.856;12.088;2022-11-15T00:42:25;9.10;;;8.23;;
11173;SDS011;5643;50.856;12.088;2022-11-15T00:44:52;8.80;;;8.00;;
11173;SDS011;5643;50.856;12.088;2022-11-15T00:47:19;9.40;;;8.50;;
11173;SDS011;5643;50.856;12.088;2022-11-15T00:49:47;9.50;;;8.60;;
11173;SDS011;5643;50.856;12.088;2022-11-15T00:52:14;8.73;;;7.93;;
11173;SDS011;5643;50.856;12.088;2022-11-15T00:54:42;9.00;;;8.20;;
11173;SDS011;5643;50.856;12.088;2022-11-15T00:57:10;9.23;;;8.33;;
11173;SDS011;5643;50.856;12.088;2022-11-15T00:59:37;8.93;;;8.13;;
11173;SDS011;5643;50.856;12.088;2022-11-15T01:02:05;8.73;;;7.93;;
11173;SDS011;5643;50.856;12.088;2022-11-15T01:04:32;8.33;;;7.53;;
11173;SDS011;5643;50.856;12.088;2022-11-15T01:06:59;8.67;;;7.87;;
11173;SDS011;5643;50.856;12.088;2022-11-15T01:09:27;8.20;;;7.50;;
11173;SDS011;5643;50.856;12.088;2022-11-15T01:11:54;8.87;;;8.07;;
11173;SDS011;5643;50.856;12.088;2022-11-15T01:14:23;8.93;;;8.10;;
11173;SDS011;5643;50.856;12.088;2022-11-15T01:16:50;8.07;;;7.27;;
11173;SDS011;5643;50.856;12.088;2022-11-15T01:19:17;8.53;;;7.73;;
11173;SDS011;5643;50.856;12.088;2022-11-15T01:21:45;8.13;;;7.43;;
11173;SDS011;5643;50.856;12.088;2022-11-15T01:24:12;8.00;;;7.20;;
11173;SDS011;5643;50.856;12.088;2022-11-15T01:26:40;8.30;;;7.50;;
11173;SDS011;5643;50.856;12.088;2022-11-15T01:29:07;7.83;;;7.13;;
11173;SDS011;5643;50.856;12.088;2022-11-15T01:31:36;8.67;;;7.87;;
11173;SDS011;5643;50.856;12.088;2022-11-15T01:34:03;7.43;;;6.73;;
11173;SDS011;5643;50.856;12.088;2022-11-15T01:36:30;7.93;;;7.23;;
11173;SDS011;5643;50.856;12.088;2022-11-15T01:38:58;7.93;;;7.17;;
11173;SDS011;5643;50.856;12.088;2022-11-15T01:41:27;7.93;;;7.13;;
11173;SDS011;5643;50.856;12.088;2022-11-15T01:43:55;8.20;;;7.50;;
11173;SDS011;5643;50.856;12.088;2022-11-15T01:46:27;8.00;;;7.30;;
11173;SDS011;5643;50.856;12.088;2022-11-15T01:48:58;9.17;;;8.30;;
11173;SDS011;5643;50.856;12.088;2022-11-15T01:51:28;8.93;;;8.13;;
11173;SDS011;5643;50.856;12.088;2022-11-15T01:53:58;7.67;;;6.97;;
11173;SDS011;5643;50.856;12.088;2022-11-15T01:56:28;8.03;;;7.27;;
11173;SDS011;5643;50.856;12.088;2022-11-15T01:58:57;8.40;;;7.60;;
11173;SDS011;5643;50.856;12.088;2022-11-15T02:01:25;8.80;;;8.00;;
11173;SDS011;5643;50.856;12.088;2022-11-15T02:03:54;8.57;;;7.77;;
11173;SDS011;5643;50.856;12.088;2022-11-15T02:06:25;8.23;;;7.43;;
11173;SDS011;5643;50.856;12.088;2022-11-15T02:08:52;8.23;;;7.50;;
11173;SDS011;5643;50.856;12.088;2022-11-15T02:11:19;7.87;;;7.17;;
11173;SDS011;5643;50.856;12.088;2022-11-15T02:13:47;7.87;;;7.07;;
11173;SDS011;5643;50.856;12.088;2022-11-15T02:16:17;7.87;;;7.17;;
11173;SDS011;5643;50.856;12.088;2022-11-15T02:18:49;7.90;;;7.20;;
11173;SDS011;5643;50.856;12.088;2022-11-15T02:21:22;7.77;;;7.07;;
11173;SDS011;5643;50.856;12.088;2022-11-15T02:24:02;7.80;;;7.10;;
11173;SDS011;5643;50.856;12.088;2022-11-15T02:26:46;7.83;;;7.13;;
11173;SDS011;5643;50.856;12.088;2022-11-15T02:29:19;7.93;;;7.23;;
11173;SDS011;5643;50.856;12.088;2022-11-15T02:31:51;8.47;;;7.67;;
11173;SDS011;5643;50.856;12.088;2022-11-15T02:34:23;8.10;;;7.40;;
11173;SDS011;5643;50.856;12.088;2022-11-15T02:36:55;8.30;;;7.53;;
11173;SDS011;5643;50.856;12.088;2022-11-15T02:39:28;8.20;;;7.50;;
11173;SDS011;5643;50.856;12.088;2022-11-15T02:42:01;7.83;;;7.13;;
11173;SDS011;5643;50.856;12.088;2022-11-15T02:44:30;7.97;;;7.27;;
11173;SDS011;5643;50.856;12.088;2022-11-15T02:47:00;7.40;;;6.70;;
11173;SDS011;5643;50.856;12.088;2022-11-15T02:49:41;7.47;;;6.87;;
11173;SDS011;5643;50.856;12.088;2022-11-15T02:52:08;7.20;;;6.60;;
11173;SDS011;5643;50.856;12.088;2022-11-15T02:54:35;7.97;;;7.27;;
11173;SDS011;5643;50.856;12.088;2022-11-15T02:57:03;8.23;;;7.43;;
11173;SDS011;5643;50.856;12.088;2022-11-15T02:59:47;8.13;;;7.33;;
11173;SDS011;5643;50.856;12.088;2022-11-15T03:02:21;8.00;;;7.30;;
11173;SDS011;5643;50.856;12.088;2022-11-15T03:04:53;8.63;;;7.83;;
11173;SDS011;5643;50.856;12.088;2022-11-15T03:07:23;8.80;;;7.90;;
11173;SDS011;5643;50.856;12.088;2022-11-15T03:10:05;8.33;;;7.53;;
11173;SDS011;5643;50.856;12.088;2022-11-15T03:12:34;8.80;;;8.00;;
11173;SDS011;5643;50.856;12.088;2022-11-15T03:15:06;8.60;;;7.80;;
11173;SDS011;5643;50.856;12.088;2022-11-15T03:17:37;8.20;;;7.40;;
11173;SDS011;5643;50.856;12.088;2022-11-15T03:20:06;7.80;;;7.10;;
11173;SDS011;5643;50.856;12.088;2022-11-15T03:22:35;8.17;;;7.37;;
11173;SDS011;5643;50.856;12.088;2022-11-15T03:25:04;7.57;;;6.87;;
11173;SDS011;5643;50.856;12.088;2022-11-15T03:27:33;8.57;;;7.77;;
11173;SDS011;5643;50.856;12.088;2022-11-15T03:30:03;8.30;;;7.60;;
11173;SDS011;5643;50.856;12.088;2022-11-15T03:32:31;7.90;;;7.20;;
11173;SDS011;5643;50.856;12.088;2022-11-15T03:35:04;7.00;;;6.40;;
11173;SDS011;5643;50.856;12.088;2022-11-15T03:37:33;8.67;;;7.87;;
11173;SDS011;5643;50.856;12.088;2022-11-15T03:40:02;8.67;;;7.87;;
11173;SDS011;5643;50.856;12.088;2022-11-15T03:42:30;7.10;;;6.50;;
11173;SDS011;5643;50.856;12.088;2022-11-15T03:45:02;7.40;;;6.70;;
11173;SDS011;5643;50.856;12.088;2022-11-15T03:47:31;7.97;;;7.27;;
11173;SDS011;5643;50.856;12.088;2022-11-15T03:50:01;7.60;;;6.90;;
11173;SDS011;5643;50.856;12.088;2022-11-15T03:52:32;7.40;;;6.80;;
11173;SDS011;5643;50.856;12.088;2022-11-15T03:55:00;6.70;;;6.10;;
11173;SDS011;5643;50.856;12.088;2022-11-15T03:57:29;8.10;;;7.30;;
11173;SDS011;5643;50.856;12.088;2022-11-15T04:00:02;7.80;;;7.10;;
11173;SDS011;5643;50.856;12.088;2022-11-15T04:02:29;7.30;;;6.60;;
11173;SDS011;5643;50.856;12.088;2022-11-15T04:04:56;7.10;;;6.50;;
11173;SDS011;5643;50.856;12.088;2022-11-15T04:07:24;7.40;;;6.70;;
11173;SDS011;5643;50.856;12.088;2022-11-15T04:09:53;7.43;;;6.73;;
11173;SDS011;5643;50.856;12.088;2022-11-15T04:12:29;8.30;;;7.40;;
11173;SDS011;5643;50.856;12.088;2022-11-15T04:15:00;7.40;;;6.70;;
11173;SDS011;5643;50.856;12.088;2022-11-15T04:17:34;7.30;;;6.60;;
11173;SDS011;5643;50.856;12.088;2022-11-15T04:20:02;7.17;;;6.57;;
11173;SDS011;5643;50.856;12.088;2022-11-15T04:22:47;6.93;;;6.27;;
11173;SDS011;5643;50.856;12.088;2022-11-15T04:25:33;6.80;;;6.20;;
11173;SDS011;5643;50.856;12.088;2022-11-15T04:28:01;7.00;;;6.33;;
11173;SDS011;5643;50.856;12.088;2022-11-15T04:30:28;7.10;;;6.40;;
11173;SDS011;5643;50.856;12.088;2022-11-15T04:32:55;6.60;;;6.00;;
11173;SDS011;5643;50.856;12.088;2022-11-15T04:35:23;7.47;;;6.77;;
11173;SDS011;5643;50.856;12.088;2022-11-15T04:37:51;6.63;;;6.03;;
11173;SDS011;5643;50.856;12.088;2022-11-15T04:40:17;6.70;;;6.10;;
11173;SDS011;5643;50.856;12.088;2022-11-15T04:42:46;6.80;;;6.20;;
11173;SDS011;5643;50.856;12.088;2022-11-15T04:45:18;6.00;;;5.50;;
11173;SDS011;5643;50.856;12.088;2022-11-15T04:47:46;5.87;;;5.37;;
11173;SDS011;5643;50.856;12.088;2022-11-15T04:50:13;6.43;;;5.83;;
11173;SDS011;5643;50.856;12.088;2022-11-15T04:52:41;6.57;;;5.97;;
11173;SDS011;5643;50.856;12.088;2022-11-15T04:55:10;6.73;;;6.13;;
11173;SDS011;5643;50.856;12.088;2022-11-15T04:57:38;6.10;;;5.50;;
11173;SDS011;5643;50.856;12.088;2022-11-15T05:00:08;6.10;;;5.60;;
11173;SDS011;5643;50.856;12.088;2022-11-15T05:02:36;6.03;;;5.53;;
11173;SDS011;5643;50.856;12.088;2022-11-15T05:05:20;6.30;;;5.70;;
11173;SDS011;5643;50.856;12.088;2022-11-15T05:07:48;6.67;;;6.07;;
11173;SDS011;5643;50.856;12.088;2022-11-15T05:10:16;6.60;;;6.00;;
11173;SDS011;5643;50.856;12.088;2022-11-15T05:12:43;6.30;;;5.70;;
11173;SDS011;5643;50.856;12.088;2022-11-15T05:15:12;6.17;;;5.57;;
11173;SDS011;5643;50.856;12.088;2022-11-15T05:17:39;6.93;;;6.33;;
11173;SDS011;5643;50.856;12.088;2022-11-15T05:20:06;5.50;;;5.00;;
11173;SDS011;5643;50.856;12.088;2022-11-15T05:22:35;5.77;;;5.27;;
11173;SDS011;5643;50.856;12.088;2022-11-15T05:25:02;5.93;;;5.37;;
11173;SDS011;5643;50.856;12.088;2022-11-15T05:27:30;5.53;;;5.03;;
11173;SDS011;5643;50.856;12.088;2022-11-15T05:29:57;5.47;;;5.00;;
11173;SDS011;5643;50.856;12.088;2022-11-15T05:32:26;5.43;;;4.93;;
11173;SDS011;5643;50.856;12.088;2022-11-15T05:34:54;5.87;;;5.33;;
11173;SDS011;5643;50.856;12.088;2022-11-15T05:37:22;5.80;;;5.20;;
11173;SDS011;5643;50.856;12.088;2022-11-15T05:39:56;5.27;;;4.77;;
11173;SDS011;5643;50.856;12.088;2022-11-15T05:42:23;5.30;;;4.80;;
11173;SDS011;5643;50.856;12.088;2022-11-15T05:44:52;6.13;;;5.53;;
11173;SDS011;5643;50.856;12.088;2022-11-15T05:47:19;5.17;;;4.77;;
11173;SDS011;5643;50.856;12.088;2022-11-15T05:50:00;6.13;;;5.53;;
11173;SDS011;5643;50.856;12.088;2022-11-15T05:52:28;5.70;;;5.20;;
11173;SDS011;5643;50.856;12.088;2022-11-15T05:54:56;5.60;;;5.10;;
11173;SDS011;5643;50.856;12.088;2022-11-15T05:57:23;5.60;;;5.10;;
11173;SDS011;5643;50.856;12.088;2022-11-15T05:59:50;6.13;;;5.53;;
11173;SDS011;5643;50.856;12.088;2022-11-15T06:02:18;6.37;;;5.77;;
11173;SDS011;5643;50.856;12.088;2022-11-15T06:04:45;6.70;;;6.03;;
11173;SDS011;5643;50.856;12.088;2022-11-15T06:07:14;6.17;;;5.57;;
11173;SDS011;5643;50.856;12.088;2022-11-15T06:09:41;6.57;;;5.97;;
11173;SDS011;5643;50.856;12.088;2022-11-15T06:12:08;6.00;;;5.50;;
11173;SDS011;5643;50.856;12.088;2022-11-15T06:14:39;6.70;;;6.10;;
11173;SDS011;5643;50.856;12.088;2022-11-15T06:17:07;6.50;;;5.83;;
11173;SDS011;5643;50.856;12.088;2022-11-15T06:19:35;6.50;;;5.90;;
11173;SDS011;5643;50.856;12.088;2022-11-15T06:22:02;6.17;;;5.67;;
11173;SDS011;5643;50.856;12.088;2022-11-15T06:24:31;6.03;;;5.53;;
11173;SDS011;5643;50.856;12.088;2022-11-15T06:26:59;5.73;;;5.23;;
11173;SDS011;5643;50.856;12.088;2022-11-15T06:29:26;5.50;;;5.00;;
11173;SDS011;5643;50.856;12.088;2022-11-15T06:31:54;5.60;;;5.10;;
11173;SDS011;5643;50.856;12.088;2022-11-15T06:34:21;5.87;;;5.37;;
11173;SDS011;5643;50.856;12.088;2022-11-15T06:36:50;6.43;;;5.83;;
11173;SDS011;5643;50.856;12.088;2022-11-15T06:39:17;5.10;;;4.60;;
11173;SDS011;5643;50.856;12.088;2022-11-15T06:41:47;5.60;;;5.10;;
11173;SDS011;5643;50.856;12.088;2022-11-15T06:44:15;5.70;;;5.20;;
11173;SDS011;5643;50.856;12.088;2022-11-15T06:46:43;5.60;;;5.10;;
11173;SDS011;5643;50.856;12.088;2022-11-15T06:49:12;5.33;;;4.90;;
11173;SDS011;5643;50.856;12.088;2022-11-15T06:51:39;5.53;;;5.03;;
11173;SDS011;5643;50.856;12.088;2022-11-15T06:54:07;5.83;;;5.00;;
11173;SDS011;5643;50.856;12.088;2022-11-15T06:56:35;5.90;;;5.30;;
11173;SDS011;5643;50.856;12.088;2022-11-15T06:59:03;5.40;;;4.90;;
11173;SDS011;5643;50.856;12.088;2022-11-15T07:01:31;5.80;;;5.20;;
11173;SDS011;5643;50.856;12.088;2022-11-15T07:03:59;5.70;;;5.20;;
11173;SDS011;5643;50.856;12.088;2022-11-15T07:06:30;5.93;;;5.33;;
11173;SDS011;5643;50.856;12.088;2022-11-15T07:08:58;5.90;;;5.30;;
11173;SDS011;5643;50.856;12.088;2022-11-15T07:11:27;5.63;;;5.13;;
11173;SDS011;5643;50.856;12.088;2022-11-15T07:13:54;5.73;;;5.13;;
11173;SDS011;5643;50.856;12.088;2022-11-15T07:16:23;5.30;;;4.80;;
11173;SDS011;5643;50.856;12.088;2022-11-15T07:18:51;5.23;;;4.73;;
11173;SDS011;5643;50.856;12.088;2022-11-15T07:21:18;5.20;;;4.70;;
11173;SDS011;5643;50.856;12.088;2022-11-15T07:23:46;5.00;;;4.53;;
11173;SDS011;5643;50.856;12.088;2022-11-15T07:26:13;5.30;;;4.80;;
11173;SDS011;5643;50.856;12.088;2022-11-15T07:28:40;5.00;;;4.60;;
11173;SDS011;5643;50.856;12.088;2022-11-15T07:31:10;5.00;;;4.60;;
11173;SDS011;5643;50.856;12.088;2022-11-15T07:33:39;4.80;;;4.40;;
11173;SDS011;5643;50.856;12.088;2022-11-15T07:36:08;4.77;;;4.37;;
11173;SDS011;5643;50.856;12.088;2022-11-15T07:38:38;5.47;;;4.97;;
11173;SDS011;5643;50.856;12.088;2022-11-15T07:41:05;5.10;;;4.60;;
11173;SDS011;5643;50.856;12.088;2022-11-15T07:43:33;4.77;;;4.37;;
11173;SDS011;5643;50.856;12.088;2022-11-15T07:46:03;4.80;;;4.40;;
11173;SDS011;5643;50.856;12.088;2022-11-15T07:48:31;4.60;;;4.20;;
11173;SDS011;5643;50.856;12.088;2022-11-15T07:51:01;4.83;;;4.47;;
11173;SDS011;5643;50.856;12.088;2022-11-15T07:53:29;5.10;;;4.57;;
11173;SDS011;5643;50.856;12.088;2022-11-15T07:55:57;4.50;;;4.10;;
11173;SDS011;5643;50.856;12.088;2022-11-15T07:58:25;4.93;;;4.53;;
11173;SDS011;5643;50.856;12.088;2022-11-15T08:00:53;4.60;;;4.20;;
11173;SDS011;5643;50.856;12.088;2022-11-15T08:03:20;4.07;;;3.77;;
11173;SDS011;5643;50.856;12.088;2022-11-15T08:05:50;5.10;;;4.70;;
11173;SDS011;5643;50.856;12.088;2022-11-15T08:08:19;5.27;;;4.77;;
11173;SDS011;5643;50.856;12.088;2022-11-15T08:10:46;5.97;;;5.40;;
11173;SDS011;5643;50.856;12.088;2022-11-15T08:13:14;5.77;;;5.27;;
11173;SDS011;5643;50.856;12.088;2022-11-15T08:15:41;6.07;;;5.57;;
11173;SDS011;5643;50.856;12.088;2022-11-15T08:18:10;6.07;;;5.57;;
11173;SDS011;5643;50.856;12.088;2022-11-15T08:20:38;5.67;;;5.17;;
11173;SDS011;5643;50.856;12.088;2022-11-15T08:23:06;5.17;;;4.77;;
11173;SDS011;5643;50.856;12.088;2022-11-15T08:25:37;5.47;;;4.93;;
11173;SDS011;5643;50.856;12.088;2022-11-15T08:28:07;4.53;;;4.20;;
11173;SDS011;5643;50.856;12.088;2022-11-15T08:30:35;4.77;;;4.40;;
11173;SDS011;5643;50.856;12.088;2022-11-15T08:35:59;5.10;;;4.70;;
11173;SDS011;5643;50.856;12.088;2022-11-15T08:38:26;4.77;;;4.37;;
11173;SDS011;5643;50.856;12.088;2022-11-15T08:40:58;4.10;;;3.80;;
11173;SDS011;5643;50.856;12.088;2022-11-15T08:43:26;4.27;;;3.97;;
11173;SDS011;5643;50.856;12.088;2022-11-15T08:45:55;4.37;;;4.03;;
11173;SDS011;5643;50.856;12.088;2022-11-15T08:48:23;4.60;;;4.20;;
11173;SDS011;5643;50.856;12.088;2022-11-15T08:50:52;4.80;;;4.40;;
11173;SDS011;5643;50.856;12.088;2022-11-15T08:53:21;4.73;;;4.33;;
11173;SDS011;5643;50.856;12.088;2022-11-15T08:55:49;5.00;;;4.60;;
11173;SDS011;5643;50.856;12.088;2022-11-15T08:58:18;5.73;;;5.23;;
11173;SDS011;5643;50.856;12.088;2022-11-15T09:00:45;5.47;;;5.07;;
11173;SDS011;5643;50.856;12.088;2022-11-15T09:03:13;5.37;;;4.90;;
11173;SDS011;5643;50.856;12.088;2022-11-15T09:05:41;5.43;;;4.93;;
11173;SDS011;5643;50.856;12.088;2022-11-15T09:08:09;5.13;;;4.63;;
11173;SDS011;5643;50.856;12.088;2022-11-15T09:10:37;4.40;;;4.10;;
11173;SDS011;5643;50.856;12.088;2022-11-15T09:13:05;4.70;;;4.30;;
11173;SDS011;5643;50.856;12.088;2022-11-15T09:15:33;4.13;;;3.83;;
11173;SDS011;5643;50.856;12.088;2022-11-15T09:18:02;3.83;;;3.53;;
11173;SDS011;5643;50.856;12.088;2022-11-15T09:20:29;4.03;;;3.73;;
11173;SDS011;5643;50.856;12.088;2022-11-15T09:22:59;4.37;;;3.97;;
11173;SDS011;5643;50.856;12.088;2022-11-15T09:25:30;4.10;;;3.80;;
11173;SDS011;5643;50.856;12.088;2022-11-15T09:27:58;4.40;;;4.00;;
11173;SDS011;5643;50.856;12.088;2022-11-15T09:30:25;3.90;;;3.60;;
11173;SDS011;5643;50.856;12.088;2022-11-15T09:32:56;3.77;;;3.47;;
11173;SDS011;5643;50.856;12.088;2022-11-15T09:35:24;3.50;;;3.20;;
11173;SDS011;5643;50.856;12.088;2022-11-15T09:37:51;3.70;;;3.40;;
11173;SDS011;5643;50.856;12.088;2022-11-15T09:40:18;3.60;;;3.30;;
11173;SDS011;5643;50.856;12.088;2022-11-15T09:42:59;3.37;;;3.07;;
11173;SDS011;5643;50.856;12.088;2022-11-15T09:45:31;3.80;;;3.50;;
11173;SDS011;5643;50.856;12.088;2022-11-15T09:48:20;3.50;;;3.20;;
11173;SDS011;5643;50.856;12.088;2022-11-15T09:50:51;2.90;;;2.70;;
11173;SDS011;5643;50.856;12.088;2022-11-15T09:53:24;2.80;;;2.60;;
11173;SDS011;5643;50.856;12.088;2022-11-15T09:55:54;3.17;;;2.90;;
11173;SDS011;5643;50.856;12.088;2022-11-15T09:58:29;2.63;;;2.43;;
11173;SDS011;5643;50.856;12.088;2022-11-15T10:01:02;2.80;;;2.60;;
11173;SDS011;5643;50.856;12.088;2022-11-15T10:03:34;2.90;;;2.70;;
11173;SDS011;5643;50.856;12.088;2022-11-15T10:06:04;3.60;;;3.30;;
11173;SDS011;5643;50.856;12.088;2022-11-15T10:08:35;2.70;;;2.50;;
11173;SDS011;5643;50.856;12.088;2022-11-15T10:11:05;2.60;;;2.40;;
11173;SDS011;5643;50.856;12.088;2022-11-15T10:13:36;2.83;;;2.63;;
11173;SDS011;5643;50.856;12.088;2022-11-15T10:16:09;3.30;;;3.00;;
11173;SDS011;5643;50.856;12.088;2022-11-15T10:18:44;2.67;;;2.47;;
11173;SDS011;5643;50.856;12.088;2022-11-15T10:21:19;2.50;;;2.30;;
11173;SDS011;5643;50.856;12.088;2022-11-15T10:23:48;2.80;;;2.60;;
11173;SDS011;5643;50.856;12.088;2022-11-15T10:26:19;2.90;;;2.70;;
11173;SDS011;5643;50.856;12.088;2022-11-15T10:28:46;2.33;;;2.20;;
11173;SDS011;5643;50.856;12.088;2022-11-15T10:31:21;2.50;;;2.30;;
11173;SDS011;5643;50.856;12.088;2022-11-15T10:33:50;2.77;;;2.43;;
11173;SDS011;5643;50.856;12.088;2022-11-15T10:36:22;2.20;;;2.10;;
11173;SDS011;5643;50.856;12.088;2022-11-15T10:38:52;1.97;;;1.87;;
11173;SDS011;5643;50.856;12.088;2022-11-15T10:41:21;3.13;;;2.83;;
11173;SDS011;5643;50.856;12.088;2022-11-15T10:44:02;2.80;;;2.60;;
11173;SDS011;5643;50.856;12.088;2022-11-15T10:46:29;2.77;;;2.57;;
11173;SDS011;5643;50.856;12.088;2022-11-15T10:49:07;2.87;;;2.57;;
11173;SDS011;5643;50.856;12.088;2022-11-15T10:51:40;2.90;;;2.67;;
11173;SDS011;5643;50.856;12.088;2022-11-15T10:54:10;2.47;;;2.27;;
11173;SDS011;5643;50.856;12.088;2022-11-15T10:56:40;1.97;;;1.87;;
11173;SDS011;5643;50.856;12.088;2022-11-15T10:59:14;2.07;;;1.97;;
11173;SDS011;5643;50.856;12.088;2022-11-15T11:01:45;2.30;;;2.20;;
11173;SDS011;5643;50.856;12.088;2022-11-15T11:04:14;1.90;;;1.80;;
11173;SDS011;5643;50.856;12.088;2022-11-15T11:06:49;2.10;;;1.90;;
11173;SDS011;5643;50.856;12.088;2022-11-15T11:09:28;2.47;;;1.70;;
11173;SDS011;5643;50.856;12.088;2022-11-15T11:11:58;2.93;;;1.83;;
11173;SDS011;5643;50.856;12.088;2022-11-15T11:14:26;1.73;;;1.63;;
11173;SDS011;5643;50.856;12.088;2022-11-15T11:16:55;1.77;;;1.67;;
11173;SDS011;5643;50.856;12.088;2022-11-15T11:19:37;1.93;;;1.83;;
11173;SDS011;5643;50.856;12.088;2022-11-15T11:22:09;2.07;;;1.93;;
11173;SDS011;5643;50.856;12.088;2022-11-15T11:24:42;1.90;;;1.80;;
11173;SDS011;5643;50.856;12.088;2022-11-15T11:27:17;2.63;;;2.43;;
11173;SDS011;5643;50.856;12.088;2022-11-15T11:29:51;2.53;;;2.33;;
11173;SDS011;5643;50.856;12.088;2022-11-15T11:32:26;2.40;;;2.20;;
11173;SDS011;5643;50.856;12.088;2022-11-15T11:35:01;2.13;;;1.97;;
11173;SDS011;5643;50.856;12.088;2022-11-15T11:37:34;2.27;;;2.07;;
11173;SDS011;5643;50.856;12.088;2022-11-15T11:40:08;2.07;;;1.97;;
11173;SDS011;5643;50.856;12.088;2022-11-15T11:42:39;1.80;;;1.70;;
11173;SDS011;5643;50.856;12.088;2022-11-15T11:45:15;1.77;;;1.67;;
11173;SDS011;5643;50.856;12.088;2022-11-15T11:47:46;1.57;;;1.47;;
11173;SDS011;5643;50.856;12.088;2022-11-15T11:50:17;2.00;;;1.90;;
11173;SDS011;5643;50.856;12.088;2022-11-15T11:52:48;2.30;;;2.10;;
11173;SDS011;5643;50.856;12.088;2022-11-15T11:55:23;1.77;;;1.67;;
11173;SDS011;5643;50.856;12.088;2022-11-15T11:57:53;2.00;;;1.90;;
11173;SDS011;5643;50.856;12.088;2022-11-15T12:00:26;2.33;;;2.13;;
11173;SDS011;5643;50.856;12.088;2022-11-15T12:02:59;2.40;;;2.20;;
11173;SDS011;5643;50.856;12.088;2022-11-15T12:05:32;2.33;;;2.13;;
11173;SDS011;5643;50.856;12.088;2022-11-15T12:08:04;2.00;;;1.90;;
11173;SDS011;5643;50.856;12.088;2022-11-15T12:10:35;2.00;;;1.80;;
11173;SDS011;5643;50.856;12.088;2022-11-15T12:13:06;1.60;;;1.50;;
11173;SDS011;5643;50.856;12.088;2022-11-15T12:15:36;2.00;;;1.80;;
11173;SDS011;5643;50.856;12.088;2022-11-15T12:18:08;1.70;;;1.60;;
11173;SDS011;5643;50.856;12.088;2022-11-15T12:20:48;1.67;;;1.57;;
11173;SDS011;5643;50.856;12.088;2022-11-15T12:23:26;1.60;;;1.50;;
11173;SDS011;5643;50.856;12.088;2022-11-15T12:25:56;1.60;;;1.50;;
11173;SDS011;5643;50.856;12.088;2022-11-15T12:28:25;1.57;;;1.47;;
11173;SDS011;5643;50.856;12.088;2022-11-15T12:30:56;7.97;;;7.20;;
11173;SDS011;5643;50.856;12.088;2022-11-15T12:33:31;13.70;;;12.33;;
11173;SDS011;5643;50.856;12.088;2022-11-15T12:36:00;11.20;;;10.10;;
11173;SDS011;5643;50.856;12.088;2022-11-15T12:41:15;7.30;;;6.60;;
11173;SDS011;5643;50.856;12.088;2022-11-15T12:43:43;5.03;;;4.53;;
11173;SDS011;5643;50.856;12.088;2022-11-15T12:46:12;3.90;;;3.60;;
11173;SDS011;5643;50.856;12.088;2022-11-15T12:48:50;2.80;;;2.60;;
11173;SDS011;5643;50.856;12.088;2022-11-15T12:51:20;2.10;;;2.00;;
11173;SDS011;5643;50.856;12.088;2022-11-15T12:53:48;1.70;;;1.60;;
11173;SDS011;5643;50.856;12.088;2022-11-15T12:56:24;2.20;;;1.70;;
11173;SDS011;5643;50.856;12.088;2022-11-15T12:58:53;1.80;;;1.70;;
11173;SDS011;5643;50.856;12.088;2022-11-15T13:04:08;2.60;;;2.40;;
11173;SDS011;5643;50.856;12.088;2022-11-15T13:06:42;3.20;;;2.20;;
11173;SDS011;5643;50.856;12.088;2022-11-15T13:12:00;1.73;;;1.50;;
11173;SDS011;5643;50.856;12.088;2022-11-15T13:14:41;1.90;;;1.80;;
11173;SDS011;5643;50.856;12.088;2022-11-15T13:17:25;2.10;;;1.77;;
11173;SDS011;5643;50.856;12.088;2022-11-15T13:19:53;2.10;;;1.90;;
11173;SDS011;5643;50.856;12.088;2022-11-15T13:22:24;1.60;;;1.50;;
11173;SDS011;5643;50.856;12.088;2022-11-15T13:25:19;2.13;;;1.93;;
11173;SDS011;5643;50.856;12.088;2022-11-15T13:27:51;2.17;;;1.97;;
11173;SDS011;5643;50.856;12.088;2022-11-15T13:30:23;2.50;;;2.30;;
11173;SDS011;5643;50.856;12.088;2022-11-15T13:32:51;2.07;;;1.80;;
11173;SDS011;5643;50.856;12.088;2022-11-15T13:35:19;1.60;;;1.50;;
11173;SDS011;5643;50.856;12.088;2022-11-15T13:37:51;1.53;;;1.40;;
11173;SDS011;5643;50.856;12.088;2022-11-15T13:40:21;0.90;;;0.90;;
11173;SDS011;5643;50.856;12.088;2022-11-15T13:42:49;1.47;;;1.20;;
11173;SDS011;5643;50.856;12.088;2022-11-15T13:45:17;1.47;;;1.37;;
11173;SDS011;5643;50.856;12.088;2022-11-15T13:47:50;1.30;;;1.20;;
11173;SDS011;5643;50.856;12.088;2022-11-15T13:50:18;1.57;;;1.47;;
11173;SDS011;5643;50.856;12.088;2022-11-15T13:52:48;1.40;;;1.30;;
11173;SDS011;5643;50.856;12.088;2022-11-15T13:55:17;1.40;;;1.30;;
11173;SDS011;5643;50.856;12.088;2022-11-15T13:57:46;1.03;;;1.03;;
11173;SDS011;5643;50.856;12.088;2022-11-15T14:00:29;1.10;;;1.10;;
11173;SDS011;5643;50.856;12.088;2022-11-15T14:03:11;1.60;;;1.50;;
11173;SDS011;5643;50.856;12.088;2022-11-15T14:05:41;1.13;;;1.10;;
11173;SDS011;5643;50.856;12.088;2022-11-15T14:08:21;1.63;;;1.53;;
11173;SDS011;5643;50.856;12.088;2022-11-15T14:11:11;2.57;;;1.50;;
11173;SDS011;5643;50.856;12.088;2022-11-15T14:13:39;1.50;;;1.40;;
11173;SDS011;5643;50.856;12.088;2022-11-15T14:16:14;1.47;;;1.37;;
11173;SDS011;5643;50.856;12.088;2022-11-15T14:18:43;1.30;;;1.20;;
11173;SDS011;5643;50.856;12.088;2022-11-15T14:21:11;1.63;;;1.50;;
11173;SDS011;5643;50.856;12.088;2022-11-15T14:23:38;1.63;;;1.53;;
11173;SDS011;5643;50.856;12.088;2022-11-15T14:26:11;1.53;;;1.43;;
11173;SDS011;5643;50.856;12.088;2022-11-15T14:28:52;2.00;;;1.53;;
11173;SDS011;5643;50.856;12.088;2022-11-15T14:31:20;1.53;;;1.43;;
11173;SDS011;5643;50.856;12.088;2022-11-15T14:33:48;1.93;;;1.47;;
11173;SDS011;5643;50.856;12.088;2022-11-15T14:36:16;1.60;;;1.50;;
11173;SDS011;5643;50.856;12.088;2022-11-15T14:38:44;1.47;;;1.37;;
11173;SDS011;5643;50.856;12.088;2022-11-15T14:41:18;1.40;;;1.30;;
11173;SDS011;5643;50.856;12.088;2022-11-15T14:43:46;2.10;;;1.90;;
11173;SDS011;5643;50.856;12.088;2022-11-15T14:46:13;1.93;;;1.77;;
11173;SDS011;5643;50.856;12.088;2022-11-15T14:48:41;1.83;;;1.70;;
11173;SDS011;5643;50.856;12.088;2022-11-15T14:51:10;1.90;;;1.80;;
11173;SDS011;5643;50.856;12.088;2022-11-15T14:53:38;2.00;;;1.90;;
11173;SDS011;5643;50.856;12.088;2022-11-15T14:56:05;1.70;;;1.53;;
11173;SDS011;5643;50.856;12.088;2022-11-15T14:58:34;1.97;;;1.87;;
11173;SDS011;5643;50.856;12.088;2022-11-15T15:01:02;2.07;;;1.93;;
11173;SDS011;5643;50.856;12.088;2022-11-15T15:03:30;1.90;;;1.80;;
11173;SDS011;5643;50.856;12.088;2022-11-15T15:05:57;2.33;;;2.00;;
11173;SDS011;5643;50.856;12.088;2022-11-15T15:08:25;2.00;;;1.70;;
11173;SDS011;5643;50.856;12.088;2022-11-15T15:10:53;1.70;;;1.60;;
11173;SDS011;5643;50.856;12.088;2022-11-15T15:13:21;1.80;;;1.70;;
11173;SDS011;5643;50.856;12.088;2022-11-15T15:15:51;1.70;;;1.60;;